Погода Пальмасна неделю

Парана, Бразилия

12 - 18 июня
  • 12июня
    Сегодня
    +14°
    +23°
    Ясно и безоблачно
    ВремяПогодаТемператураВлажностьДавлениеВетер, м/сВероятность осадков
    00:00Ясно и безоблачно+16°C92 %675 мм3.1 м/с5 %
    03:00Ясно и безоблачно+14°C85 %674 мм3.3 м/с5 %
    06:00Ясно и безоблачно+15°C79 %674 мм3.9 м/с5 %
    09:00Ясно и безоблачно+18°C75 %676 мм3.0 м/с5 %
    12:00Ясно и безоблачно+22°C50 %677 мм3.5 м/с5 %
    15:00Ясно и безоблачно+22°C47 %675 мм3.1 м/с5 %
    18:00Ясно и безоблачно+19°C73 %674 мм2.5 м/с5 %
    21:00Ясно и безоблачно+16°C74 %674 мм3.0 м/с5 %
  • 13июня
    Четверг
    +16°
    +24°
    Облачно с прояснениями
    ВремяПогодаТемператураВлажностьДавлениеВетер, м/сВероятность осадков
    00:00Ясно и безоблачно+15°C81 %673 мм3.5 м/с5 %
    03:00Ясно и безоблачно+14°C78 %672 мм3.6 м/с5 %
    06:00Ясно и безоблачно+15°C75 %672 мм3.7 м/с5 %
    09:00Ясно и безоблачно+17°C70 %673 мм3.5 м/с5 %
    12:00Практически безоблачно+22°C53 %674 мм5.6 м/с5 %
    15:00Облачно с прояснениями+23°C48 %672 мм5.6 м/с5 %
    18:00Ясно и безоблачно+19°C64 %671 мм4.1 м/с5 %
    21:00Небольшая облачность+17°C63 %671 мм5.4 м/с5 %
  • 14июня
    Пятница
    +16°
    +24°
    Ясно и безоблачно
    ВремяПогодаТемператураВлажностьДавлениеВетер, м/сВероятность осадков
    00:00Небольшая облачность+16°C54 %671 мм5.3 м/с5 %
    03:00Практически безоблачно+16°C52 %671 мм5.6 м/с5 %
    06:00Ясно и безоблачно+17°C56 %671 мм5.3 м/с5 %
    09:00Ясно и безоблачно+18°C57 %673 мм5.0 м/с5 %
    12:00Ясно и безоблачно+23°C52 %674 мм5.5 м/с5 %
    15:00Ясно и безоблачно+24°C48 %673 мм6.5 м/с5 %
    18:00Ясно и безоблачно+21°C64 %672 мм3.6 м/с5 %
    21:00Практически безоблачно+18°C72 %673 мм3.9 м/с5 %
  • 15июня
    Суббота
    +17°
    +24°
    Небольшая облачность
    ВремяПогодаТемператураВлажностьДавлениеВетер, м/сВероятность осадков
    00:00Практически безоблачно+18°C68 %673 мм5.4 м/с5 %
    03:00Практически безоблачно+17°C68 %672 мм4.9 м/с5 %
    06:00Ясно и безоблачно+17°C71 %673 мм4.1 м/с5 %
    09:00Облачно с прояснениями+19°C67 %674 мм4.0 м/с5 %
    12:00Небольшая облачность+23°C56 %675 мм6.3 м/с5 %
    15:00Небольшая облачность+24°C56 %674 мм5.5 м/с5 %
    18:00Небольшая облачность+21°C67 %674 мм3.0 м/с5 %
    21:00Ясно и безоблачно+19°C75 %674 мм3.0 м/с3 %
  • 16июня
    Воскресенье
    +15°
    +24°
    Облачно с прояснениями
    ВремяПогодаТемператураВлажностьДавлениеВетер, м/сВероятность осадков
    00:00Облачно с прояснениями+18°C73 %673 мм3.6 м/с5 %
    03:00Небольшая облачность+19°C63 %673 мм3.5 м/с5 %
    06:00Ясно и безоблачно+19°C64 %673 мм3.6 м/с5 %
    09:00Практически безоблачно+20°C64 %674 мм4.0 м/с5 %
    12:00Практически безоблачно+23°C54 %674 мм5.6 м/с3 %
    15:00Облачно с прояснениями+23°C51 %672 мм5.8 м/с3 %
    18:00Пасмурно, сплошная облачность+21°C73 %672 мм2.5 м/с6 %
    21:00Пасмурно, сплошная облачность+19°C73 %671 мм4.0 м/с10 %
Мы используем cookies
Соглашаюсь